createdAt,value
2023-03-16T00:00:59.763Z,48.24
2023-03-16T00:01:59.811Z,48.44
2023-03-16T00:02:59.925Z,48.24
2023-03-16T00:03:59.824Z,48.14
2023-03-16T00:04:59.845Z,48.24
2023-03-16T00:05:59.870Z,48.24
2023-03-16T00:07:00.183Z,48.24
2023-03-16T00:07:59.887Z,48.24
2023-03-16T00:08:59.914Z,48.24
2023-03-16T00:09:59.940Z,48.24
2023-03-16T00:10:59.984Z,48.24
2023-03-16T00:11:59.951Z,48.24
2023-03-16T00:12:59.978Z,48.24
2023-03-16T00:13:59.976Z,48.24
2023-03-16T00:14:59.954Z,48.24
2023-03-16T00:16:00.040Z,48.24
2023-03-16T00:17:00.008Z,48.24
2023-03-16T00:18:00.035Z,48.34
2023-03-16T00:19:00.053Z,48.24
2023-03-16T00:20:01.131Z,48.14
2023-03-16T00:21:00.103Z,48.34
2023-03-16T00:22:00.163Z,48.24
2023-03-16T00:23:00.136Z,48.24
2023-03-16T00:24:00.157Z,48.24
2023-03-16T00:25:00.188Z,48.14
2023-03-16T00:26:00.226Z,48.34
2023-03-16T00:27:00.232Z,48.24
2023-03-16T00:28:00.201Z,48.24
2023-03-16T00:29:00.223Z,48.24
2023-03-16T00:30:00.250Z,48.24
2023-03-16T00:31:00.238Z,48.24
2023-03-16T00:32:00.332Z,48.03
2023-03-16T00:33:00.302Z,48.34
2023-03-16T00:34:00.265Z,48.24
2023-03-16T00:35:00.294Z,48.34
2023-03-16T00:36:00.441Z,48.34
2023-03-16T00:37:00.331Z,48.34
2023-03-16T00:38:00.366Z,48.34
2023-03-16T00:39:00.344Z,48.34
2023-03-16T00:40:00.431Z,48.24
2023-03-16T00:41:00.358Z,48.24
2023-03-16T00:42:00.382Z,48.34
2023-03-16T00:43:00.442Z,48.14
2023-03-16T00:44:00.434Z,48.24
2023-03-16T00:45:00.469Z,48.24
2023-03-16T00:46:00.549Z,48.24
2023-03-16T00:47:00.450Z,48.24
2023-03-16T00:48:00.466Z,48.24
2023-03-16T00:49:00.492Z,48.14
2023-03-16T00:50:00.535Z,48.24
2023-03-16T00:51:00.510Z,48.24
2023-03-16T00:52:00.536Z,48.24
2023-03-16T00:53:00.560Z,48.24
2023-03-16T00:54:00.584Z,48.24
2023-03-16T00:55:00.882Z,48.24
2023-03-16T00:56:00.634Z,48.24
2023-03-16T00:57:00.654Z,48.24
2023-03-16T00:58:00.673Z,48.34
2023-03-16T00:59:00.725Z,48.34
2023-03-16T01:00:00.710Z,48.34
2023-03-16T01:01:00.718Z,48.24
2023-03-16T01:02:00.712Z,48.14
2023-03-16T01:03:00.738Z,48.34
2023-03-16T01:04:00.715Z,48.34
2023-03-16T01:05:00.736Z,48.26
2023-03-16T01:06:00.762Z,48.36
2023-03-16T01:07:00.751Z,48.36
2023-03-16T01:08:00.779Z,48.46
2023-03-16T01:09:00.811Z,48.46
2023-03-16T01:10:00.985Z,48.36
2023-03-16T01:11:00.832Z,48.36
2023-03-16T01:12:00.860Z,48.26
2023-03-16T01:13:00.879Z,48.26
2023-03-16T01:14:00.907Z,48.46
2023-03-16T01:15:00.939Z,48.34
2023-03-16T01:16:00.927Z,48.46
2023-03-16T01:17:00.987Z,48.26
2023-03-16T01:18:00.936Z,48.24
2023-03-16T01:19:00.960Z,48.26
2023-03-16T01:20:00.985Z,48.36
2023-03-16T01:21:01.006Z,48.36
2023-03-16T01:22:01.051Z,48.36
2023-03-16T01:23:01.026Z,48.26
2023-03-16T01:24:01.073Z,48.36
2023-03-16T01:25:01.050Z,48.26
2023-03-16T01:26:01.050Z,48.36
2023-03-16T01:27:01.096Z,48.26
2023-03-16T01:28:01.082Z,48.26
2023-03-16T01:29:01.100Z,48.26
2023-03-16T01:30:01.118Z,48.34
2023-03-16T01:31:01.198Z,48.26
2023-03-16T01:32:01.210Z,48.26
2023-03-16T01:33:01.304Z,48.26
2023-03-16T01:34:01.198Z,48.26
2023-03-16T01:35:01.206Z,48.36
2023-03-16T01:36:01.413Z,48.36
2023-03-16T01:37:01.259Z,48.26
2023-03-16T01:38:01.230Z,48.36
2023-03-16T01:39:01.241Z,48.36
2023-03-16T01:40:01.275Z,48.36
2023-03-16T01:41:01.298Z,48.26
2023-03-16T01:42:01.333Z,48.26
2023-03-16T01:43:01.317Z,48.46
2023-03-16T01:44:01.337Z,48.36
2023-03-16T01:45:01.370Z,48.26
2023-03-16T01:46:01.486Z,48.16
2023-03-16T01:47:01.473Z,48.36
2023-03-16T01:48:01.468Z,48.46
2023-03-16T01:49:01.488Z,48.36
2023-03-16T01:50:01.588Z,48.26
2023-03-16T01:51:01.481Z,48.36
2023-03-16T01:52:01.553Z,48.26
2023-03-16T01:53:01.516Z,48.36
2023-03-16T01:54:01.548Z,48.36
2023-03-16T01:55:01.553Z,48.26
2023-03-16T01:56:01.564Z,48.26
2023-03-16T01:57:01.538Z,48.26
2023-03-16T01:58:01.582Z,48.36
2023-03-16T01:59:01.580Z,48.36
2023-03-16T02:00:01.590Z,48.36
2023-03-16T02:01:01.720Z,48.26
2023-03-16T02:02:01.625Z,48.36
2023-03-16T02:03:01.686Z,48.36
2023-03-16T02:04:01.716Z,48.46
2023-03-16T02:05:01.668Z,48.16
2023-03-16T02:06:01.698Z,48.36
2023-03-16T02:07:01.678Z,48.26
2023-03-16T02:08:01.750Z,48.26
2023-03-16T02:09:01.726Z,48.46
2023-03-16T02:10:01.707Z,48.26
2023-03-16T02:11:01.711Z,48.26
2023-03-16T02:12:01.723Z,48.26
2023-03-16T02:13:02.007Z,48.26
2023-03-16T02:14:01.734Z,48.26
2023-03-16T02:15:01.757Z,48.16
2023-03-16T02:16:01.878Z,48.46
2023-03-16T02:17:01.768Z,48.26
2023-03-16T02:18:01.799Z,48.36
2023-03-16T02:19:01.853Z,48.26
2023-03-16T02:20:01.823Z,48.26
2023-03-16T02:21:01.846Z,48.36
2023-03-16T02:22:01.876Z,48.26
2023-03-16T02:23:01.915Z,48.26
2023-03-16T02:24:01.931Z,48.36
2023-03-16T02:25:01.946Z,48.26
2023-03-16T02:26:01.974Z,48.36
2023-03-16T02:27:02.003Z,48.26
2023-03-16T02:28:02.043Z,48.26
2023-03-16T02:29:02.031Z,48.36
2023-03-16T02:30:02.055Z,48.26
2023-03-16T02:31:02.123Z,48.26
2023-03-16T02:32:02.079Z,48.36
2023-03-16T02:33:02.141Z,48.26
2023-03-16T02:34:02.113Z,48.36
2023-03-16T02:35:02.765Z,48.26
2023-03-16T02:36:02.806Z,48.16
2023-03-16T02:37:02.253Z,48.26
2023-03-16T02:38:02.740Z,48.16
2023-03-16T02:39:02.217Z,48.26
2023-03-16T02:40:02.240Z,48.26
2023-03-16T02:41:02.495Z,48.26
2023-03-16T02:42:02.310Z,48.16
2023-03-16T02:43:02.280Z,48.16
2023-03-16T02:44:02.282Z,48.26
2023-03-16T02:45:02.301Z,48.06
2023-03-16T02:46:02.410Z,48.16
2023-03-16T02:47:02.361Z,48.26
2023-03-16T02:48:02.334Z,48.36
2023-03-16T02:49:02.366Z,48.36
2023-03-16T02:50:02.393Z,48.26
2023-03-16T02:51:02.487Z,48.26
2023-03-16T02:52:02.430Z,48.26
2023-03-16T02:53:02.399Z,48.36
2023-03-16T02:54:02.427Z,48.26
2023-03-16T02:55:02.450Z,48.36
2023-03-16T02:56:02.470Z,48.26
2023-03-16T02:57:02.512Z,48.26
2023-03-16T02:58:02.518Z,48.26
2023-03-16T02:59:02.553Z,48.16
2023-03-16T03:00:02.564Z,48.16
2023-03-16T03:01:02.588Z,48.36
2023-03-16T03:02:02.636Z,48.16
2023-03-16T03:03:02.641Z,48.26
2023-03-16T03:04:02.631Z,48.26
2023-03-16T03:07:54.504Z,48.36
2023-03-16T03:13:12.270Z,48.26
2023-03-16T03:14:12.247Z,48.26
2023-03-16T03:15:12.269Z,48.16
2023-03-16T03:16:12.335Z,48.36
2023-03-16T03:17:12.284Z,48.36
2023-03-16T03:18:12.304Z,48.26
2023-03-16T03:19:12.336Z,48.26
2023-03-16T03:20:12.354Z,48.26
2023-03-16T03:21:12.382Z,48.26
2023-03-16T03:22:12.409Z,48.16
2023-03-16T03:23:12.476Z,48.26
2023-03-16T03:24:12.402Z,48.26
2023-03-16T03:25:12.427Z,48.06
2023-03-16T03:26:12.449Z,48.06
2023-03-16T03:27:12.486Z,48.26
2023-03-16T03:28:12.765Z,48.26
2023-03-16T03:29:12.544Z,48.26
2023-03-16T03:30:12.537Z,48.26
2023-03-16T03:31:12.566Z,48.16
2023-03-16T03:32:12.562Z,48.26
2023-03-16T03:33:12.601Z,48.16
2023-03-16T03:34:12.584Z,48.36
2023-03-16T03:35:12.562Z,48.26
2023-03-16T03:36:12.578Z,48.26
2023-03-16T03:37:12.597Z,48.26
2023-03-16T03:38:12.613Z,48.26
2023-03-16T03:39:12.652Z,48.26
2023-03-16T03:40:12.616Z,48.16
2023-03-16T03:41:12.640Z,48.16
2023-03-16T03:42:12.667Z,48.16
2023-03-16T03:43:12.689Z,48.16
2023-03-16T03:44:12.738Z,48.26
2023-03-16T03:45:12.711Z,48.28
2023-03-16T03:46:12.887Z,48.28
2023-03-16T03:47:12.893Z,48.26
2023-03-16T03:48:12.720Z,48.28
2023-03-16T03:49:12.739Z,48.26
2023-03-16T03:50:12.754Z,48.18
2023-03-16T03:51:12.783Z,48.28
2023-03-16T03:52:12.803Z,48.28
2023-03-16T03:53:12.850Z,48.28
2023-03-16T03:54:12.869Z,48.18
2023-03-16T03:55:12.862Z,48.28
2023-03-16T03:56:12.835Z,48.26
2023-03-16T03:57:12.828Z,48.26
2023-03-16T03:58:12.854Z,48.16
2023-03-16T03:59:12.874Z,48.16
2023-03-16T04:00:12.904Z,48.16
2023-03-16T04:01:12.930Z,48.16
2023-03-16T04:02:13.045Z,48.06
2023-03-16T04:03:13.102Z,48.28
2023-03-16T04:04:12.962Z,48.16
2023-03-16T04:05:12.991Z,48.28
2023-03-16T04:06:13.030Z,48.18
2023-03-16T04:07:13.010Z,48.18
2023-03-16T04:08:13.035Z,48.28
2023-03-16T04:09:13.054Z,48.28
2023-03-16T04:10:13.082Z,48.38
2023-03-16T04:11:13.153Z,48.26
2023-03-16T04:12:13.115Z,48.28
2023-03-16T04:13:13.137Z,48.26
2023-03-16T04:14:13.194Z,48.06
2023-03-16T04:15:13.170Z,48.28
2023-03-16T04:16:13.244Z,48.28
2023-03-16T04:17:13.224Z,48.36
2023-03-16T04:18:13.248Z,48.16
2023-03-16T04:19:13.273Z,48.26
2023-03-16T04:20:13.261Z,48.16
2023-03-16T04:21:13.299Z,48.16
2023-03-16T04:22:13.275Z,48.26
2023-03-16T04:23:13.296Z,48.16
2023-03-16T04:24:13.317Z,48.06
2023-03-16T04:25:13.344Z,48.16
2023-03-16T04:26:13.412Z,48.16
2023-03-16T04:27:13.421Z,48.16
2023-03-16T04:28:13.392Z,48.26
2023-03-16T04:29:13.415Z,48.26
2023-03-16T04:30:13.428Z,48.26
2023-03-16T04:31:13.480Z,48.16
2023-03-16T04:32:13.452Z,48.16
2023-03-16T04:33:13.474Z,48.06
2023-03-16T04:34:13.501Z,48.26
2023-03-16T04:35:13.524Z,48.16
2023-03-16T04:36:13.626Z,48.16
2023-03-16T04:37:13.552Z,48.06
2023-03-16T04:38:13.599Z,47.96
2023-03-16T04:39:13.576Z,48.06
2023-03-16T04:40:13.601Z,48.16
2023-03-16T04:41:13.633Z,48.16
2023-03-16T04:42:13.655Z,48.16
2023-03-16T04:43:13.702Z,48.16
2023-03-16T04:44:13.641Z,48.06
2023-03-16T04:45:13.662Z,48.16
2023-03-16T04:46:13.740Z,48.16
2023-03-16T04:47:13.631Z,48.06
2023-03-16T04:48:13.658Z,47.96
2023-03-16T04:49:13.701Z,48.06
2023-03-16T04:50:13.687Z,48.16
2023-03-16T04:51:13.705Z,48.16
2023-03-16T04:52:13.732Z,47.96
2023-03-16T04:53:13.770Z,48.06
2023-03-16T04:54:13.797Z,48.16
2023-03-16T04:55:13.811Z,48.16
2023-03-16T04:56:13.826Z,48.26
2023-03-16T04:57:13.851Z,48.06
2023-03-16T04:58:13.884Z,48.16
2023-03-16T04:59:13.901Z,48.06
2023-03-16T05:00:13.862Z,48.18
2023-03-16T05:01:13.913Z,48.06
2023-03-16T05:02:13.911Z,48.06
2023-03-16T05:03:13.938Z,48.06
2023-03-16T05:04:19.268Z,48.06
2023-03-16T05:05:14.019Z,48.06
2023-03-16T05:06:13.977Z,48.08
2023-03-16T05:14:23.618Z,48.28
2023-03-16T05:15:23.592Z,48.49
2023-03-16T05:16:23.690Z,48.49
2023-03-16T05:17:23.627Z,48.38
2023-03-16T05:18:23.646Z,48.38
2023-03-16T05:19:23.937Z,48.28
2023-03-16T05:20:23.678Z,48.28
2023-03-16T05:21:23.691Z,48.28
2023-03-16T05:22:23.865Z,48.38
2023-03-16T05:23:23.712Z,48.49
2023-03-16T05:24:23.738Z,48.28
2023-03-16T05:25:23.736Z,48.38
2023-03-16T05:26:23.717Z,48.49
2023-03-16T05:27:23.874Z,48.49
2023-03-16T05:28:23.755Z,48.49
2023-03-16T05:29:23.726Z,48.38
2023-03-16T05:30:23.775Z,48.50
2023-03-16T05:31:23.896Z,48.50
2023-03-16T05:32:23.879Z,48.61
2023-03-16T05:33:23.737Z,48.41
2023-03-16T05:34:23.769Z,48.00
2023-03-16T05:35:24.412Z,47.70
2023-03-16T05:36:23.775Z,47.40
2023-03-16T05:37:23.906Z,47.40
2023-03-16T05:38:23.787Z,47.19
2023-03-16T05:39:23.818Z,46.89
2023-03-16T05:40:23.832Z,46.69
2023-03-16T05:41:23.824Z,46.49
2023-03-16T05:42:23.801Z,46.19
2023-03-16T05:43:23.820Z,45.98
2023-03-16T05:44:23.815Z,45.58
2023-03-16T05:45:23.803Z,45.78
2023-03-16T05:46:23.865Z,45.68
2023-03-16T05:47:23.810Z,45.38
2023-03-16T05:48:23.804Z,45.38
2023-03-16T05:49:23.846Z,45.38
2023-03-16T05:50:23.831Z,45.58
2023-03-16T05:51:23.856Z,45.78
2023-03-16T05:52:23.887Z,45.58
2023-03-16T05:53:23.935Z,45.48
2023-03-16T05:54:23.917Z,45.38
2023-03-16T05:55:23.930Z,44.90
2023-03-16T05:56:23.916Z,44.70
2023-03-16T05:57:23.927Z,44.59
2023-03-16T05:58:23.894Z,44.29
2023-03-16T05:59:23.917Z,44.37
2023-03-16T06:01:49.842Z,44.17
2023-03-16T06:02:49.873Z,44.37
2023-03-16T06:03:49.962Z,44.27
2023-03-16T06:04:49.842Z,43.99
2023-03-16T06:05:49.872Z,44.09
2023-03-16T06:06:49.915Z,44.62
2023-03-16T06:07:49.894Z,44.21
2023-03-16T06:08:49.919Z,44.11
2023-03-16T06:09:49.943Z,43.60
2023-03-16T06:10:49.985Z,43.60
2023-03-16T06:11:50.035Z,43.40
2023-03-16T06:12:50.033Z,42.90
2023-03-16T06:13:50.058Z,42.19
2023-03-16T06:14:50.074Z,42.09
2023-03-16T06:15:50.160Z,41.91
2023-03-16T06:16:50.084Z,41.81
2023-03-16T06:17:50.097Z,41.71
2023-03-16T06:18:50.080Z,42.11
2023-03-16T06:19:50.108Z,42.01
2023-03-16T06:20:50.145Z,41.30
2023-03-16T06:21:50.202Z,41.30
2023-03-16T06:22:50.139Z,40.80
2023-03-16T06:23:50.146Z,41.10
2023-03-16T06:24:50.122Z,40.80
2023-03-16T06:25:50.162Z,40.09
2023-03-16T06:26:50.148Z,39.99
2023-03-16T06:27:50.184Z,39.77
2023-03-16T06:28:50.173Z,39.67
2023-03-16T06:29:50.160Z,39.45
2023-03-16T06:30:50.199Z,39.23
2023-03-16T06:31:50.384Z,39.03
2023-03-16T06:32:50.335Z,39.03
2023-03-16T06:33:50.229Z,39.01
2023-03-16T06:34:50.214Z,39.01
2023-03-16T06:35:50.290Z,39.11
2023-03-16T06:36:50.232Z,39.11
2023-03-16T06:37:50.264Z,39.21
2023-03-16T06:38:50.290Z,39.29
2023-03-16T06:39:50.334Z,39.39
2023-03-16T06:40:50.335Z,39.39
2023-03-16T06:41:50.366Z,39.39
2023-03-16T06:42:51.418Z,39.50
2023-03-16T06:43:50.419Z,39.59
2023-03-16T06:44:50.470Z,39.59
2023-03-16T06:45:50.531Z,39.68
2023-03-16T06:46:50.478Z,39.78
2023-03-16T06:47:50.503Z,39.78
2023-03-16T06:48:50.520Z,39.98
2023-03-16T06:49:50.768Z,39.98
2023-03-16T06:50:50.615Z,40.08
2023-03-16T06:51:50.557Z,40.18
2023-03-16T06:52:50.579Z,40.28
2023-03-16T06:53:50.566Z,40.28
2023-03-16T06:54:50.599Z,40.28
2023-03-16T06:55:50.640Z,40.38
2023-03-16T06:56:50.637Z,40.36
2023-03-16T06:57:50.615Z,40.46
2023-03-16T06:58:50.660Z,40.56
2023-03-16T06:59:50.683Z,40.46
2023-03-16T07:00:50.719Z,40.56
2023-03-16T07:01:50.705Z,40.56
2023-03-16T07:02:50.737Z,40.66
2023-03-16T07:03:50.749Z,40.69
2023-03-16T07:04:50.741Z,40.97
2023-03-16T07:05:50.784Z,40.86
2023-03-16T07:06:50.761Z,40.97
2023-03-16T07:07:50.791Z,41.17
2023-03-16T07:08:50.788Z,41.27
2023-03-16T07:09:50.768Z,41.19
2023-03-16T07:10:50.790Z,41.17
2023-03-16T07:11:50.817Z,41.39
2023-03-16T07:12:50.814Z,41.29
2023-03-16T07:13:50.804Z,41.49
2023-03-16T07:14:53.657Z,41.77
2023-03-16T07:15:50.807Z,41.87
2023-03-16T07:16:50.894Z,41.87
2023-03-16T07:17:50.847Z,41.77
2023-03-16T07:18:50.864Z,42.10
2023-03-16T07:19:50.888Z,41.99
2023-03-16T07:20:50.878Z,42.19
2023-03-16T07:21:50.897Z,42.19
2023-03-16T07:22:50.879Z,42.58
2023-03-16T07:23:50.875Z,42.47
2023-03-16T07:24:50.854Z,42.27
2023-03-16T07:25:50.881Z,42.68
2023-03-16T07:26:50.910Z,42.38
2023-03-16T07:27:50.930Z,42.27
2023-03-16T07:28:50.942Z,42.38
2023-03-16T07:29:50.927Z,42.58
2023-03-16T07:31:03.081Z,42.78
2023-03-16T07:31:50.997Z,42.98
2023-03-16T07:32:50.998Z,42.78
2023-03-16T07:33:50.948Z,42.68
2023-03-16T07:34:50.979Z,42.88
2023-03-16T07:35:51.054Z,42.88
2023-03-16T07:36:51.005Z,42.98
2023-03-16T07:37:51.025Z,42.78
2023-03-16T07:38:51.001Z,42.58
2023-03-16T07:39:51.029Z,42.55
2023-03-16T07:40:51.048Z,42.66
2023-03-16T07:41:51.082Z,42.68
2023-03-16T07:42:51.084Z,42.86
2023-03-16T07:43:51.066Z,42.86
2023-03-16T07:44:51.936Z,42.96
2023-03-16T07:45:51.159Z,42.96
2023-03-16T07:46:51.142Z,43.06
2023-03-16T07:47:51.179Z,43.26
2023-03-16T07:48:51.168Z,43.16
2023-03-16T07:49:51.154Z,43.36
2023-03-16T07:50:51.192Z,43.46
2023-03-16T07:51:51.198Z,43.46
2023-03-16T07:52:51.204Z,43.46
2023-03-16T07:53:51.205Z,43.56
2023-03-16T07:54:51.177Z,43.66
2023-03-16T07:55:51.205Z,43.87
2023-03-16T07:56:51.250Z,43.95
2023-03-16T07:57:51.256Z,44.04
2023-03-16T07:58:51.251Z,43.95
2023-03-16T07:59:51.248Z,44.15
2023-03-16T08:00:51.227Z,44.04
2023-03-16T08:01:51.249Z,44.24
2023-03-16T08:02:51.346Z,44.24
2023-03-16T08:03:51.380Z,44.24
2023-03-16T08:04:51.299Z,44.35
2023-03-16T08:05:51.301Z,44.24
2023-03-16T08:06:51.287Z,44.15
2023-03-16T08:07:51.309Z,44.15
2023-03-16T08:08:51.341Z,44.15
2023-03-16T08:09:51.438Z,44.24
2023-03-16T08:10:51.379Z,44.15
2023-03-16T08:11:51.367Z,44.24
2023-03-16T08:12:51.473Z,44.45
2023-03-16T08:13:51.393Z,44.55
2023-03-16T08:14:51.418Z,44.55
2023-03-16T08:15:51.543Z,44.55
2023-03-16T08:16:51.484Z,44.55
2023-03-16T08:17:51.480Z,44.55
2023-03-16T08:18:51.496Z,44.55
2023-03-16T08:19:51.530Z,44.55
2023-03-16T08:20:51.538Z,44.45
2023-03-16T08:22:01.010Z,44.55
2023-03-16T08:22:51.546Z,44.65
2023-03-16T08:23:51.523Z,44.65
2023-03-16T08:24:51.557Z,44.75
2023-03-16T08:25:52.046Z,44.65
2023-03-16T08:26:51.580Z,44.75
2023-03-16T08:27:51.604Z,44.65
2023-03-16T08:28:51.614Z,44.65
2023-03-16T08:29:51.619Z,44.45
2023-03-16T08:30:51.664Z,44.45
2023-03-16T08:31:51.589Z,44.45
2023-03-16T08:32:51.652Z,44.45
2023-03-16T08:33:51.618Z,44.45
2023-03-16T08:34:51.612Z,44.35
2023-03-16T08:35:51.716Z,44.35
2023-03-16T08:36:51.634Z,44.24
2023-03-16T08:37:51.662Z,44.24
2023-03-16T08:39:06.202Z,44.35
2023-03-16T08:39:51.711Z,44.24
2023-03-16T08:40:51.694Z,44.24
2023-03-16T08:41:51.737Z,44.24
2023-03-16T08:42:51.717Z,44.15
2023-03-16T08:43:52.425Z,44.12
2023-03-16T08:44:51.749Z,44.24
2023-03-16T08:45:51.762Z,44.24
2023-03-16T08:46:51.918Z,44.12
2023-03-16T08:47:51.792Z,44.12
2023-03-16T08:48:51.821Z,44.12
2023-03-16T08:49:51.858Z,44.12
2023-03-16T08:50:51.847Z,44.12
2023-03-16T08:51:51.842Z,44.02
2023-03-16T08:52:51.868Z,44.02
2023-03-16T08:53:51.930Z,44.02
2023-03-16T08:55:02.418Z,44.02
2023-03-16T08:55:51.934Z,44.02
2023-03-16T08:56:51.935Z,44.02
2023-03-16T08:57:51.993Z,44.02
2023-03-16T08:58:51.967Z,44.02
2023-03-16T08:59:52.006Z,44.02
2023-03-16T09:00:52.000Z,43.92
2023-03-16T09:01:52.028Z,43.92
2023-03-16T09:02:51.985Z,43.92
2023-03-16T09:03:52.019Z,43.92
2023-03-16T09:04:51.992Z,43.92
2023-03-16T09:05:51.986Z,43.92
2023-03-16T09:07:05.952Z,43.92
2023-03-16T09:07:52.034Z,44.02
2023-03-16T09:08:52.022Z,44.02
2023-03-16T09:09:52.066Z,44.02
2023-03-16T09:10:52.044Z,44.02
2023-03-16T09:11:52.067Z,44.02
2023-03-16T09:12:52.174Z,44.02
2023-03-16T09:13:53.184Z,44.02
2023-03-16T09:14:52.150Z,44.02
2023-03-16T09:15:52.198Z,44.02
2023-03-16T09:16:52.161Z,44.02
2023-03-16T09:17:52.207Z,44.02
2023-03-16T09:18:52.187Z,44.02
2023-03-16T09:19:53.970Z,44.02
2023-03-16T09:20:52.231Z,43.92
2023-03-16T09:21:52.226Z,43.92
2023-03-16T09:22:52.241Z,44.02
2023-03-16T09:23:52.218Z,43.92
2023-03-16T09:24:52.239Z,43.92
2023-03-16T09:25:52.260Z,43.92
2023-03-16T09:26:52.417Z,44.02
2023-03-16T09:27:52.310Z,44.02
2023-03-16T09:28:52.300Z,44.02
2023-03-16T09:29:52.324Z,43.92
2023-03-16T09:30:52.313Z,43.92
2023-03-16T09:31:52.479Z,43.92
2023-03-16T09:32:52.524Z,43.92
2023-03-16T09:33:52.350Z,44.02
2023-03-16T09:34:52.332Z,43.92
2023-03-16T09:35:52.383Z,44.02
2023-03-16T09:36:52.364Z,44.02
2023-03-16T09:38:07.221Z,44.02
2023-03-16T09:38:52.410Z,44.02
2023-03-16T09:39:55.891Z,44.02
2023-03-16T09:40:52.439Z,43.92
2023-03-16T09:41:52.426Z,43.92
2023-03-16T09:42:52.465Z,43.92
2023-03-16T09:43:52.443Z,43.92
2023-03-16T09:44:52.483Z,44.02
2023-03-16T09:45:52.594Z,44.02
2023-03-16T09:46:52.471Z,44.02
2023-03-16T09:47:52.460Z,44.02
2023-03-16T09:48:52.493Z,44.02
2023-03-16T09:49:52.476Z,44.00
2023-03-16T09:50:52.857Z,43.90
2023-03-16T09:51:52.501Z,43.90
2023-03-16T09:52:52.532Z,43.90
2023-03-16T09:53:52.557Z,43.90
2023-03-16T09:54:52.581Z,43.90
2023-03-16T09:55:52.602Z,43.80
2023-03-16T09:56:52.584Z,43.80
2023-03-16T09:57:52.592Z,43.90
2023-03-16T09:58:52.576Z,43.80
2023-03-16T09:59:52.560Z,43.80
2023-03-16T10:00:52.608Z,43.80
2023-03-16T10:01:52.620Z,43.80
2023-03-16T10:02:52.619Z,43.80
2023-03-16T10:03:52.618Z,43.80
2023-03-16T10:04:52.618Z,43.80
2023-03-16T10:05:52.635Z,43.90
2023-03-16T10:06:52.654Z,44.18
2023-03-16T10:07:52.662Z,44.08
2023-03-16T10:08:52.647Z,43.88
2023-03-16T10:09:52.668Z,43.78
2023-03-16T10:10:52.679Z,43.88
2023-03-16T10:11:52.710Z,44.08
2023-03-16T10:12:52.709Z,43.98
2023-03-16T10:13:52.689Z,43.98
2023-03-16T10:14:52.762Z,43.88
2023-03-16T10:15:52.751Z,43.96
2023-03-16T10:16:52.898Z,43.86
2023-03-16T10:17:52.957Z,43.96
2023-03-16T10:18:52.759Z,43.86
2023-03-16T10:19:52.780Z,43.96
2023-03-16T10:20:52.816Z,43.96
2023-03-16T10:21:52.835Z,43.96
2023-03-16T10:22:52.885Z,44.06
2023-03-16T10:23:52.900Z,44.06
2023-03-16T10:24:52.941Z,44.06
2023-03-16T10:25:52.936Z,44.06
2023-03-16T10:26:52.941Z,44.06
2023-03-16T10:29:18.880Z,44.16
2023-03-16T10:30:18.874Z,44.16
2023-03-16T10:31:19.353Z,44.16
2023-03-16T10:32:18.903Z,44.26
2023-03-16T10:33:19.039Z,44.16
2023-03-16T10:34:18.967Z,44.36
2023-03-16T10:35:18.942Z,44.67
2023-03-16T10:36:19.065Z,44.67
2023-03-16T10:37:18.999Z,44.76
2023-03-16T10:38:19.018Z,44.87
2023-03-16T10:39:19.079Z,44.87
2023-03-16T10:40:19.065Z,44.96
2023-03-16T10:41:19.156Z,44.87
2023-03-16T10:42:19.113Z,45.06
2023-03-16T10:43:19.150Z,45.17
2023-03-16T10:44:19.146Z,45.06
2023-03-16T10:45:19.137Z,45.17
2023-03-16T10:46:19.428Z,45.26
2023-03-16T10:47:19.240Z,45.17
2023-03-16T10:48:19.167Z,45.26
2023-03-16T10:49:19.218Z,45.37
2023-03-16T10:50:19.191Z,45.37
2023-03-16T10:51:19.228Z,45.37
2023-03-16T10:52:19.208Z,45.37
2023-03-16T10:53:19.231Z,45.47
2023-03-16T10:54:19.258Z,45.47
2023-03-16T10:55:19.279Z,45.37
2023-03-16T10:56:19.273Z,45.47
2023-03-16T10:57:19.262Z,45.47
2023-03-16T10:58:19.286Z,45.57
2023-03-16T10:59:19.311Z,45.67
2023-03-16T11:00:19.378Z,45.57
2023-03-16T11:01:19.404Z,45.77
2023-03-16T11:02:19.372Z,45.77
2023-03-16T11:03:19.375Z,45.77
2023-03-16T11:04:19.429Z,45.65
2023-03-16T11:05:19.432Z,45.87
2023-03-16T11:06:19.423Z,45.87
2023-03-16T11:07:19.456Z,45.97
2023-03-16T11:08:19.443Z,45.77
2023-03-16T11:09:19.478Z,45.95
2023-03-16T11:10:19.515Z,45.95
2023-03-16T11:11:19.532Z,46.04
2023-03-16T11:12:19.516Z,45.95
2023-03-16T11:13:19.572Z,46.04
2023-03-16T11:14:19.549Z,45.95
2023-03-16T11:15:25.919Z,45.84
2023-03-16T11:16:19.665Z,45.84
2023-03-16T11:17:19.594Z,45.54
2023-03-16T11:18:19.624Z,45.45
2023-03-16T11:19:19.649Z,45.25
2023-03-16T11:20:19.732Z,45.25
2023-03-16T11:21:19.700Z,45.14
2023-03-16T11:22:19.659Z,45.14
2023-03-16T11:23:19.680Z,45.04
2023-03-16T11:24:19.709Z,44.95
2023-03-16T11:25:19.698Z,44.95
2023-03-16T11:26:19.686Z,44.95
2023-03-16T11:27:19.715Z,45.04
2023-03-16T11:28:19.712Z,45.04
2023-03-16T11:29:19.696Z,45.04
2023-03-16T11:30:19.717Z,44.95
2023-03-16T11:31:19.773Z,44.95
2023-03-16T11:32:19.766Z,44.95
2023-03-16T11:33:19.798Z,44.95
2023-03-16T11:34:19.816Z,44.84
2023-03-16T11:35:19.805Z,44.84
2023-03-16T11:36:19.824Z,44.84
2023-03-16T11:37:19.845Z,44.84
2023-03-16T11:38:19.841Z,44.84
2023-03-16T11:39:19.864Z,44.72
2023-03-16T11:40:19.891Z,44.62
2023-03-16T11:41:19.893Z,44.62
2023-03-16T11:42:19.871Z,44.62
2023-03-16T11:43:19.896Z,44.62
2023-03-16T11:44:19.990Z,44.62
2023-03-16T11:45:19.932Z,44.52
2023-03-16T11:46:19.995Z,44.52
2023-03-16T11:47:19.934Z,44.42
2023-03-16T11:48:19.950Z,44.32
2023-03-16T11:49:19.926Z,44.32
2023-03-16T11:50:19.947Z,44.20
2023-03-16T11:51:19.982Z,44.10
2023-03-16T11:52:19.966Z,44.10
2023-03-16T11:53:20.031Z,44.00
2023-03-16T11:54:20.011Z,44.20
2023-03-16T11:55:20.114Z,44.10
2023-03-16T11:56:20.059Z,43.90
2023-03-16T11:57:20.163Z,43.80
2023-03-16T11:58:20.148Z,43.60
2023-03-16T11:59:20.084Z,43.60
2023-03-16T12:00:20.110Z,43.18
2023-03-16T12:01:20.110Z,43.18
2023-03-16T12:02:20.302Z,42.88
2023-03-16T12:03:20.357Z,41.97
2023-03-16T12:04:20.294Z,42.27
2023-03-16T12:05:20.164Z,42.27
2023-03-16T12:06:22.919Z,42.38
2023-03-16T12:07:20.155Z,42.07
2023-03-16T12:08:20.285Z,41.97
2023-03-16T12:09:20.316Z,41.85
2023-03-16T12:10:20.313Z,41.67
2023-03-16T12:11:20.264Z,41.77
2023-03-16T12:12:20.303Z,41.75
2023-03-16T12:13:20.543Z,41.55
2023-03-16T12:14:20.325Z,41.46
2023-03-16T12:15:20.341Z,41.57
2023-03-16T12:16:20.356Z,41.55
2023-03-16T12:17:20.283Z,41.55
2023-03-16T12:18:20.323Z,41.66
2023-03-16T12:19:20.382Z,41.66
2023-03-16T12:20:20.374Z,41.66
2023-03-16T12:21:20.404Z,41.75
2023-03-16T12:22:20.395Z,41.96
2023-03-16T12:23:20.346Z,42.05
2023-03-16T12:24:20.395Z,42.05
2023-03-16T12:25:20.472Z,41.96
2023-03-16T12:26:20.353Z,41.83
2023-03-16T12:27:20.336Z,41.53
2023-03-16T12:28:20.463Z,41.43
2023-03-16T12:29:20.367Z,41.33
2023-03-16T12:30:20.349Z,41.53
2023-03-16T12:31:20.376Z,41.53
2023-03-16T12:32:20.361Z,41.53
2023-03-16T12:33:20.400Z,41.03
2023-03-16T12:34:20.386Z,40.53
2023-03-16T12:35:20.420Z,40.15
2023-03-16T12:36:20.406Z,39.55
2023-03-16T12:37:20.432Z,38.55
2023-03-16T12:38:20.538Z,37.95
2023-03-16T12:39:20.476Z,37.85
2023-03-16T12:41:20.545Z,38.05
2023-03-16T12:42:20.544Z,38.25
2023-03-16T12:43:20.699Z,38.25
2023-03-16T12:44:20.652Z,38.15
2023-03-16T12:45:20.580Z,38.05
2023-03-16T12:46:20.705Z,38.15
2023-03-16T12:47:20.654Z,37.95
2023-03-16T12:48:20.645Z,38.05
2023-03-16T12:49:20.572Z,37.93
2023-03-16T12:50:20.563Z,37.93
2023-03-16T12:51:20.598Z,37.83
2023-03-16T12:52:20.573Z,37.93
2023-03-16T12:53:20.615Z,37.93
2023-03-16T12:54:20.713Z,38.03
2023-03-16T12:55:20.752Z,38.03
2023-03-16T12:56:20.644Z,38.03
2023-03-16T12:57:20.760Z,38.13
2023-03-16T12:58:20.769Z,38.13
2023-03-16T12:59:20.779Z,38.13
2023-03-16T13:00:20.727Z,38.23
2023-03-16T13:01:21.046Z,38.23
2023-03-16T13:02:20.947Z,38.13
2023-03-16T13:03:20.834Z,38.03
2023-03-16T13:04:21.001Z,38.05
2023-03-16T13:05:20.820Z,37.95
2023-03-16T13:06:20.794Z,38.05
2023-03-16T13:07:20.799Z,38.05
2023-03-16T13:08:20.873Z,38.05
2023-03-16T13:09:20.853Z,38.05
2023-03-16T13:10:20.956Z,38.05
2023-03-16T13:11:20.933Z,37.95